x

Texas Tower #4 - 75 Nm East Of Long Beach, Nj (44066) Wave Buoy

5:50am - Thu 27th Nov 2014 All times are EST. -5 hours from GMT.

  • Sig Wave height 10.8ft
  • Swell Direction
  • Peak Period 11s
  • Average Period 7s
  • Wind
    16mph, 20mph gusts
  • Sea Temp 58°f
  • Air Temp 44°f
  • Sea Pressure 1012.9mb
  • Texas Tower #4 - 75 Nm East Of Long Beach, Nj
  • Texas Tower #4 - 75 Nm East Of Long Beach, Nj

More Historic Weather Station data

Upgrade to MSW Pro to gain access to the past 30 days of data for over 8000 Wavebouys and Weather Stations around the globe.

Join Pro

Comparision Forecast

View Surf forecast
   
Thu 11/27 5:50am 11ft 11s 7s 16 20 mph 1012.9mb 58f 44f
4:50am 11.5ft 11s 7s 20 25 mph 1012mb 58f 44f
3:50am 12.5ft 11s 7s 20 27 mph 1011.4mb 58f 43f
2:50am 12ft 11s 7s 22 27 mph 1010.2mb 58f 43f
1:50am 14ft 11s 7s 25 29 mph 1009.8mb 58f 43f
12:50am 14ft 9s 7s 27 31 mph 1008.6mb 58f 43f
Wed 11/26 11:50pm 14.5ft 9s 7s 27 36 mph 1006.6mb 59f 44f
10:50pm 16ft 10s 7s 31 43 mph 1004.4mb 59f 44f
9:50pm 17ft 9s 8s 36 47 mph 1002.7mb 59f 45f
8:50pm 19ft 9s 8s 38 49 mph 1001mb 59f 47f
7:50pm 17ft 10s 8s 29 40 mph 999.7mb 59f 52f
6:50pm  -   -   -  25 31 mph 998.7mb 59f 54f
5:50pm  -   -   -  36 43 mph 998.2mb 59f 53f
4:50pm  -   -   -  38 49 mph 1000.3mb 59f 50f
3:50pm  -   -   -  40 49 mph 1001.3mb 59f 51f
2:50pm  -   -   -  40 49 mph 1002.8mb 59f 50f
1:50pm 10.5ft 8s 6s 36 45 mph 1005.4mb 59f 51f
12:50pm  -   -   -  36
mph
1005.8mb 59f 51f
11:50am 9ft 6s 6s 34 40 mph 1009.7mb 59f 50f
10:50am 7.5ft 6s 5s 34 40 mph 1011.5mb 59f 50f
9:50am 6.5ft 5s 5s 27 36 mph 1014.7mb 59f 49f
8:50am 5.5ft 8s 5s 27 29 mph 1016.4mb 59f 49f
7:50am 5ft 9s 5s 25 29 mph 1016.6mb 59f 51f
6:50am 5ft 9s 5s 25 31 mph 1017.8mb 59f 51f
5:50am  -   -   -  25 31 mph 1018mb 59f 53f
4:50am 5ft 9s 5s 20 22 mph 1019.4mb 59f 53f
3:50am 4.5ft 9s 6s 18 20 mph 1020.1mb 59f 54f
2:50am 4.5ft 9s 5s 16 20 mph 1021mb 59f 54f
1:50am 5ft 10s 6s 16 18 mph 1020.8mb 59f 54f
12:50am 5ft 10s 6s 16 18 mph 1020.6mb 59f 55f
Tue 11/25 11:50pm 5ft 10s 6s 13 18 mph 1021.2mb 60f 55f
10:50pm 5ft 10s 6s 11 16 mph 1020.5mb 60f 55f
9:50pm 5ft 10s 6s 11 16 mph 1019.9mb 60f 55f
8:50pm 6ft 9s 7s 9 13 mph 1019.3mb 60f 55f
7:50pm 6ft 9s 6s 9 11 mph 1019mb 59f 55f
6:50pm 6ft 10s 7s 9 13 mph 1018.1mb 59f 56f
5:50pm  -   -   -  9 13 mph 1017.9mb 59f 56f
4:50pm 6.5ft 10s 6s 11 16 mph 1017.3mb 59f 56f
3:50pm 7ft 10s 6s 11 13 mph 1016.7mb 59f 56f
2:50pm 7ft 10s 6s 16 18 mph 1015.8mb 60f 56f
1:50pm 8ft 11s 7s 20 22 mph 1015.5mb 60f 56f
12:50pm 7ft 10s 7s 13 18 mph 1015.6mb 60f 58f
11:50am 7.5ft 10s 7s 13 16 mph 1015.2mb 60f 59f
10:50am 7ft 9s 6s 13 16 mph 1015.3mb 60f 59f
9:50am 7.5ft 11s 7s 18 20 mph 1014.5mb 60f 60f
8:50am  -   -   -  18 20 mph 1013.5mb 60f 61f
7:50am 9ft 10s 7s 20 22 mph 1013.7mb 60f 61f
6:50am  -   -   -  20 22 mph 1012.9mb 60f 62f
5:50am 10ft 10s 7s 20 22 mph 1012mb 60f 62f
4:50am 9ft 11s 7s 20 25 mph 1011.4mb 60f 62f
3:50am 10.5ft 11s 7s 22 27 mph 1010.7mb 60f 62f
2:50am 11ft 10s 7s 22 29 mph 1009.9mb 60f 63f
1:50am 11ft 9s 7s 27 34 mph 1009.9mb 60f 63f
12:50am 12ft 11s 7s 27 34 mph 1009.8mb 60f 63f
Mon 11/24 11:50pm 11ft 10s 7s 31 38 mph 1009.4mb 60f 64f
10:50pm  -   -   -  25 29 mph 1009mb 60f 64f
9:50pm 10.5ft 10s 7s 22 27 mph 1008.8mb 60f 63f
8:50pm 13.5ft 11s 8s 22 27 mph 1008.5mb 60f 63f
7:50pm 13ft 11s 7s 22 27 mph 1008.1mb 60f 63f
6:50pm 16.5ft 11s 8s 25 31 mph 1007.8mb 60f 63f
5:50pm 15ft 11s 8s 27 34 mph 1007mb 60f 63f
4:50pm 15.5ft 11s 8s 29 34 mph 1006.1mb 60f 63f
3:50pm 15.5ft 11s 8s 25 34 mph 1005.9mb 60f 63f
2:50pm 15.5ft 10s 8s 25 29 mph 1005.8mb 60f 63f
1:50pm  -   -   -  27 38 mph 1005.8mb 60f 64f
12:50pm 15ft 11s 8s 27 34 mph 1006.3mb 60f 64f
11:50am 12ft 9s 7s 27 34 mph 1006.9mb 60f 64f
10:50am 13.5ft 10s 7s 29 36 mph 1007.1mb 60f 64f
9:50am 11ft 9s 7s 31 36 mph 1007.5mb 60f 64f
8:50am 10ft 8s 6s 27 34 mph 1008.1mb 60f 63f
7:50am 8.5ft 8s 6s 29 34 mph 1008mb 60f 62f
6:50am 8ft 7s 5s 34 40 mph 1008.4mb 60f 62f
5:50am 5ft 5s 4s 27 34 mph 1009.6mb 60f 61f
4:50am 4ft 5s 4s 25 31 mph 1010.9mb 59f 62f
3:50am 3.5ft 4s 4s 25 29 mph 1011.4mb 59f 63f
2:50am 3ft 4s 4s 22 27 mph 1012.9mb 59f 62f
1:50am 2.5ft 4s 4s 20 25 mph 1014.2mb 59f 62f
12:50am 3ft 4s 4s 18 22 mph 1015.2mb 59f 62f
Sun 11/23 11:50pm 2.5ft 5s 4s 16 18 mph 1017mb 59f 60f
10:50pm 2.5ft 5s 4s 16 20 mph 1018.2mb 59f 60f
9:50pm 2.5ft 5s 4s 16 18 mph 1019.2mb 59f 60f
8:50pm 3ft 6s 4s 13 16 mph 1020.1mb 59f 60f
7:50pm 3.5ft 6s 4s 11 13 mph 1021mb 59f 59f
6:50pm 4ft 6s 5s 9 11 mph 1021.8mb 59f 59f
5:50pm 4ft 6s 5s 11
mph
1022.2mb 59f 59f
4:50pm 4.5ft 6s 5s 13
mph
1022mb 59f 58f
3:50pm 5ft 7s 5s 18 20 mph 1022.1mb 59f 58f
2:50pm 5ft 6s 5s 18 20 mph 1021.9mb 59f 57f
1:50pm 5.5ft 7s 5s 20 25 mph 1022.1mb 59f 57f
12:50pm  -   -   -  25 29 mph 1021.7mb 59f 57f
11:50am 6.5ft 7s 5s 25 29 mph 1022.3mb 59f 57f